Time;durP1;ratioP1;P1;durP2;ratioP2;P2;SDS_P1;SDS_P2;PMS_P1;PMS_P2;Temp;Humidity;BMP_temperature;BMP_pressure;BME280_temperature;BME280_humidity;BME280_pressure;Samples;Min_cycle;Max_cycle;Signal;HPM_P1;HPM_P2
2023/06/28 00:01:56;;;;;;;1.73;1.53;;;18.40;96.50;;;;;;5037698;28;20471;-91
2023/06/28 00:04:23;;;;;;;3.70;1.73;;;18.40;95.90;;;;;;5055333;28;20510;-92
2023/06/28 00:06:50;;;;;;;1.90;1.60;;;18.40;95.80;;;;;;5047771;28;20469;-91
2023/06/28 00:09:16;;;;;;;1.43;1.33;;;18.40;95.90;;;;;;5056096;28;20830;-92
2023/06/28 00:11:45;;;;;;;2.93;1.30;;;18.40;96.00;;;;;;5054820;28;20465;-92
2023/06/28 00:14:12;;;;;;;1.43;1.33;;;18.40;96.20;;;;;;5054766;28;20469;-92
2023/06/28 00:16:38;;;;;;;1.63;1.53;;;18.40;96.20;;;;;;5054658;28;20477;-92
2023/06/28 00:19:07;;;;;;;2.40;1.67;;;18.40;96.10;;;;;;5055054;28;20474;-92
2023/06/28 00:21:33;;;;;;;1.50;1.30;;;18.40;96.20;;;;;;5055380;28;20464;-92
2023/06/28 00:24:01;;;;;;;2.10;1.53;;;18.40;96.40;;;;;;5055641;28;20484;-93
2023/06/28 00:26:27;;;;;;;2.90;1.57;;;18.40;96.60;;;;;;5054359;28;20519;-94
2023/06/28 00:28:54;;;;;;;1.97;1.50;;;18.40;96.50;;;;;;5055214;28;20468;-91
2023/06/28 00:31:21;;;;;;;2.13;1.40;;;18.40;96.60;;;;;;5054925;28;20474;-92
2023/06/28 00:33:48;;;;;;;3.23;1.87;;;18.40;97.00;;;;;;5054704;28;20507;-91
2023/06/28 00:36:16;;;;;;;1.73;1.50;;;18.40;96.90;;;;;;5054399;28;20499;-91
2023/06/28 00:38:42;;;;;;;1.77;1.40;;;18.30;96.40;;;;;;5054881;28;20456;-91
2023/06/28 00:41:09;;;;;;;3.43;2.03;;;18.30;96.40;;;;;;5054458;28;20485;-92
2023/06/28 00:43:36;;;;;;;3.80;1.57;;;18.20;96.00;;;;;;5068320;28;20488;-94
2023/06/28 00:46:03;;;;;;;1.93;1.50;;;18.20;96.40;;;;;;5053833;28;20465;-93
2023/06/28 00:48:30;;;;;;;2.50;1.63;;;18.30;96.80;;;;;;5054401;28;20468;-93
2023/06/28 00:50:57;;;;;;;2.50;2.00;;;18.20;96.40;;;;;;5054194;28;20460;-93
2023/06/28 00:53:25;;;;;;;3.13;1.80;;;18.20;96.40;;;;;;5053141;28;21032;-93
2023/06/28 00:55:53;;;;;;;3.47;2.10;;;18.20;96.50;;;;;;5053517;28;20835;-92
2023/06/28 00:58:20;;;;;;;3.80;2.00;;;18.20;96.60;;;;;;5053568;28;20560;-93
2023/06/28 01:00:47;;;;;;;3.43;1.60;;;18.20;97.10;;;;;;5053429;28;20468;-93
2023/06/28 01:03:17;;;;;;;1.47;1.33;;;18.20;96.80;;;;;;5053365;28;20484;-93
2023/06/28 01:05:45;;;;;;;2.10;1.60;;;18.20;97.50;;;;;;5053622;28;20460;-92
2023/06/28 01:08:13;;;;;;;2.70;1.60;;;18.20;97.60;;;;;;5053407;28;20457;-92
2023/06/28 01:10:41;;;;;;;2.00;1.77;;;18.20;97.10;;;;;;5053701;28;20869;-93
2023/06/28 01:13:09;;;;;;;3.97;1.90;;;18.20;97.40;;;;;;5053788;28;20811;-93
2023/06/28 01:15:35;;;;;;;3.13;1.60;;;18.20;97.20;;;;;;5053188;28;20465;-92
2023/06/28 01:18:02;;;;;;;4.63;2.13;;;18.20;97.10;;;;;;5053538;28;20478;-92
2023/06/28 01:20:30;;;;;;;2.17;1.50;;;18.10;97.10;;;;;;5053814;28;20464;-92
2023/06/28 01:22:59;;;;;;;2.10;1.80;;;18.10;97.00;;;;;;5045345;28;20483;-92
2023/06/28 01:25:25;;;;;;;2.00;1.53;;;18.10;96.90;;;;;;5053133;28;21028;-91
2023/06/28 01:27:52;;;;;;;1.70;1.60;;;18.10;97.20;;;;;;5053077;28;20470;-92
2023/06/28 01:30:23;;;;;;;2.93;1.67;;;18.00;96.80;;;;;;5053448;28;20961;-92
2023/06/28 01:32:50;;;;;;;2.97;1.73;;;18.00;96.80;;;;;;5053024;28;20507;-92
2023/06/28 01:35:17;;;;;;;1.90;1.50;;;18.00;97.20;;;;;;5053062;28;20982;-92
2023/06/28 01:37:44;;;;;;;3.47;1.93;;;18.00;97.20;;;;;;5052816;28;20962;-92
2023/06/28 01:40:17;;;;;;;5.67;1.70;;;18.00;97.20;;;;;;5052826;28;20472;-92
2023/06/28 01:42:44;;;;;;;2.00;1.80;;;18.00;98.00;;;;;;5052672;28;20476;-92
2023/06/28 01:45:11;;;;;;;1.93;1.47;;;18.00;98.20;;;;;;5052530;28;20489;-92
2023/06/28 01:47:39;;;;;;;2.50;1.80;;;18.00;98.10;;;;;;5052797;28;20471;-92
2023/06/28 01:50:07;;;;;;;1.90;1.57;;;18.00;98.30;;;;;;5052558;28;20473;-92
2023/06/28 01:52:33;;;;;;;2.20;1.60;;;18.00;97.80;;;;;;5052496;28;20991;-92
2023/06/28 01:55:00;;;;;;;4.77;2.30;;;17.90;98.50;;;;;;5052472;28;20945;-92
2023/06/28 01:57:28;;;;;;;2.80;1.50;;;17.90;98.40;;;;;;5052341;28;20472;-93
2023/06/28 01:59:55;;;;;;;1.83;1.60;;;17.90;98.60;;;;;;5052347;28;20473;-92
2023/06/28 02:02:22;;;;;;;4.53;1.70;;;17.90;99.90;;;;;;5052448;28;20566;-92
2023/06/28 02:04:49;;;;;;;4.23;2.10;;;17.90;99.90;;;;;;5051295;28;20479;-93
2023/06/28 02:07:16;;;;;;;2.20;1.77;;;17.90;99.90;;;;;;5051960;28;20521;-93
2023/06/28 02:09:42;;;;;;;2.33;2.00;;;17.80;99.90;;;;;;5052717;28;20456;-92
2023/06/28 02:12:10;;;;;;;3.10;1.90;;;17.80;99.90;;;;;;5052041;28;20484;-92
2023/06/28 02:14:39;;;;;;;4.33;2.20;;;17.70;99.90;;;;;;5052279;28;20969;-92
2023/06/28 02:17:09;;;;;;;2.43;2.10;;;17.70;99.90;;;;;;5051890;28;20469;-91
2023/06/28 02:19:36;;;;;;;2.53;2.17;;;17.60;99.90;;;;;;5052044;28;20468;-91
2023/06/28 02:22:02;;;;;;;2.30;1.93;;;17.60;99.90;;;;;;5052168;28;20486;-92
2023/06/28 02:24:29;;;;;;;2.57;1.93;;;17.50;99.90;;;;;;5052145;28;20481;-91
2023/06/28 02:26:56;;;;;;;2.97;2.10;;;17.50;99.90;;;;;;5052039;28;20462;-92
2023/06/28 02:29:23;;;;;;;3.90;1.87;;;17.40;99.90;;;;;;5052055;28;20462;-92
2023/06/28 02:31:51;;;;;;;2.33;2.07;;;17.40;99.90;;;;;;5051935;28;20472;-91
2023/06/28 02:34:17;;;;;;;5.03;2.33;;;17.30;99.90;;;;;;5052413;28;20473;-91
2023/06/28 02:36:44;;;;;;;2.37;2.10;;;17.30;99.90;;;;;;5051894;28;20460;-92
2023/06/28 02:39:11;;;;;;;2.93;2.30;;;17.20;99.90;;;;;;5052150;28;20463;-92
2023/06/28 02:41:38;;;;;;;1.97;1.70;;;17.20;99.90;;;;;;5052247;28;20466;-92
2023/06/28 02:44:05;;;;;;;2.30;2.03;;;17.10;99.90;;;;;;5052444;28;20978;-91
2023/06/28 02:46:31;;;;;;;1.83;1.60;;;17.10;99.90;;;;;;5054542;28;20468;-92
2023/06/28 02:49:00;;;;;;;2.87;2.10;;;17.00;99.90;;;;;;5060225;28;20448;-93
2023/06/28 02:51:26;;;;;;;3.00;2.43;;;16.90;99.90;;;;;;5068160;28;20463;-93
2023/06/28 02:53:53;;;;;;;2.60;1.97;;;17.00;99.90;;;;;;5052301;28;20505;-91
2023/06/28 02:56:23;;;;;;;2.70;1.67;;;16.90;99.90;;;;;;5052083;28;20517;-92
2023/06/28 02:58:49;;;;;;;3.60;1.63;;;16.90;99.90;;;;;;5052081;28;20949;-91
2023/06/28 03:01:16;;;;;;;2.30;1.80;;;16.90;99.90;;;;;;5051989;28;20472;-92
2023/06/28 03:03:43;;;;;;;2.00;1.80;;;16.90;99.90;;;;;;5051790;28;20488;-92
2023/06/28 03:06:11;;;;;;;2.40;2.10;;;16.90;99.90;;;;;;5056822;28;20464;-92
2023/06/28 03:08:38;;;;;;;2.20;1.80;;;16.90;99.90;;;;;;5052040;28;20461;-92
2023/06/28 03:11:05;;;;;;;2.17;2.00;;;16.90;99.90;;;;;;5052047;28;20827;-92
2023/06/28 03:13:31;;;;;;;2.80;2.30;;;16.90;99.90;;;;;;5052172;28;21209;-92
2023/06/28 03:15:58;;;;;;;2.63;2.43;;;17.00;99.90;;;;;;5053732;28;20526;-92
2023/06/28 03:18:25;;;;;;;2.50;2.17;;;16.90;99.90;;;;;;5055521;28;20834;-91
2023/06/28 03:20:52;;;;;;;2.60;2.40;;;16.90;99.90;;;;;;5055651;28;20987;-91
2023/06/28 03:23:20;;;;;;;3.57;2.70;;;16.90;99.90;;;;;;5055256;28;20483;-92
2023/06/28 03:25:51;;;;;;;2.70;2.20;;;16.90;99.90;;;;;;5055596;28;20464;-91
2023/06/28 03:28:18;;;;;;;2.80;2.03;;;16.80;99.90;;;;;;5055190;28;20569;-90
2023/06/28 03:30:45;;;;;;;3.03;2.37;;;16.80;99.90;;;;;;5055953;28;20852;-91
2023/06/28 03:33:12;;;;;;;2.80;2.03;;;16.80;99.90;;;;;;5055377;28;20996;-92
2023/06/28 03:35:39;;;;;;;2.60;2.10;;;16.80;99.90;;;;;;5055369;28;20783;-93
2023/06/28 03:38:05;;;;;;;2.13;1.90;;;16.70;99.90;;;;;;5055482;28;20578;-90
2023/06/28 03:40:33;;;;;;;3.17;2.20;;;16.70;99.90;;;;;;5055406;28;20460;-93
2023/06/28 03:43:00;;;;;;;2.27;1.80;;;16.70;99.90;;;;;;5054980;28;20480;-91
2023/06/28 03:45:29;;;;;;;2.30;1.97;;;16.70;99.90;;;;;;5054508;28;20479;-90
2023/06/28 03:47:56;;;;;;;2.07;1.87;;;16.70;99.90;;;;;;5052493;28;20952;-91
2023/06/28 03:50:23;;;;;;;1.87;1.77;;;16.80;99.90;;;;;;5064562;28;20451;-96
2023/06/28 03:53:03;;;;;;;3.30;1.97;;;16.80;99.90;;;;;;5077026;28;20511;-94
2023/06/28 03:55:34;;;;;;;3.17;1.50;;;16.70;99.90;;;;;;5055689;28;20562;-90
2023/06/28 03:58:01;;;;;;;1.80;1.63;;;16.70;99.90;;;;;;5057580;28;20460;-89
2023/06/28 04:00:28;;;;;;;2.03;1.70;;;16.80;99.90;;;;;;5055207;28;20456;-89
2023/06/28 04:02:55;;;;;;;4.17;2.60;;;16.80;99.90;;;;;;5052363;28;20475;-89
2023/06/28 04:05:21;;;;;;;2.50;2.00;;;16.80;99.90;;;;;;5054588;28;20483;-89
2023/06/28 04:07:54;;;;;;;2.00;1.90;;;16.80;99.90;;;;;;5055117;28;20994;-89
2023/06/28 04:10:21;;;;;;;2.87;1.93;;;16.80;99.90;;;;;;5057670;28;20456;-89
2023/06/28 04:12:49;;;;;;;3.17;1.80;;;16.80;99.90;;;;;;5056049;28;20585;-89
2023/06/28 04:15:15;;;;;;;2.97;2.00;;;16.80;99.90;;;;;;5052695;28;20465;-89
2023/06/28 04:17:42;;;;;;;3.17;2.30;;;16.80;99.90;;;;;;5054722;28;20459;-88
2023/06/28 04:20:10;;;;;;;2.53;2.13;;;16.80;99.90;;;;;;5054418;28;20461;-89
2023/06/28 04:22:37;;;;;;;2.80;1.70;;;16.80;99.90;;;;;;5052541;28;20479;-88
2023/06/28 04:25:05;;;;;;;3.23;2.13;;;16.80;99.90;;;;;;5053911;28;20492;-89
2023/06/28 04:27:31;;;;;;;2.97;1.90;;;16.80;99.90;;;;;;5053447;28;20468;-89
2023/06/28 04:29:59;;;;;;;2.27;2.07;;;16.80;99.90;;;;;;5053976;28;20887;-88
2023/06/28 04:32:27;;;;;;;3.60;2.03;;;16.80;99.90;;;;;;5052358;28;20491;-92
2023/06/28 04:34:55;;;;;;;3.10;2.07;;;16.80;99.90;;;;;;5053102;28;20850;-90
2023/06/28 04:37:22;;;;;;;2.27;2.00;;;16.80;99.90;;;;;;5052968;28;20475;-89
2023/06/28 04:39:48;;;;;;;2.97;2.20;;;16.70;99.90;;;;;;5052694;28;20483;-90
2023/06/28 04:42:15;;;;;;;2.13;1.90;;;16.70;99.90;;;;;;5054444;28;20488;-90
2023/06/28 04:44:43;;;;;;;2.93;1.63;;;16.80;99.90;;;;;;5054544;28;20487;-89
2023/06/28 04:47:15;;;;;;;3.40;2.43;;;16.70;99.90;;;;;;5054841;28;20486;-89
2023/06/28 04:49:44;;;;;;;2.03;1.83;;;16.70;99.90;;;;;;5056066;28;20488;-89
2023/06/28 04:52:12;;;;;;;2.00;1.70;;;16.70;99.90;;;;;;5059383;28;20490;-89
2023/06/28 04:54:39;;;;;;;2.10;1.90;;;16.70;99.90;;;;;;5056468;28;20566;-90
2023/06/28 04:57:06;;;;;;;2.13;1.90;;;16.70;99.90;;;;;;5055878;28;20470;-90
2023/06/28 04:59:33;;;;;;;2.63;1.80;;;16.70;99.90;;;;;;5055766;28;20471;-89
2023/06/28 05:02:03;;;;;;;2.10;1.90;;;16.70;99.90;;;;;;5056243;28;20486;-89
2023/06/28 05:04:32;;;;;;;2.00;1.80;;;16.80;99.90;;;;;;5055623;28;20486;-88
2023/06/28 05:07:03;;;;;;;2.30;2.10;;;16.80;99.90;;;;;;5065972;28;20432;-90
2023/06/28 05:09:29;;;;;;;3.67;2.17;;;16.80;99.90;;;;;;5058456;28;20462;-90
2023/06/28 05:11:56;;;;;;;3.17;2.13;;;16.80;99.90;;;;;;5055821;28;20526;-90
2023/06/28 05:14:23;;;;;;;3.70;2.23;;;16.80;99.90;;;;;;5055108;28;20882;-89
2023/06/28 05:16:50;;;;;;;2.40;1.80;;;16.80;99.90;;;;;;5055337;28;20470;-89
2023/06/28 05:19:17;;;;;;;2.73;2.30;;;16.90;99.90;;;;;;5055471;28;20463;-89
2023/06/28 05:21:45;;;;;;;4.40;2.00;;;16.90;99.90;;;;;;5055551;28;20459;-92
2023/06/28 05:24:12;;;;;;;2.80;2.40;;;16.90;99.90;;;;;;5054600;28;20461;-89
2023/06/28 05:26:38;;;;;;;1.67;1.50;;;16.90;99.90;;;;;;5055601;28;20464;-89
2023/06/28 05:29:05;;;;;;;3.30;1.90;;;17.00;99.90;;;;;;5054901;28;20983;-89
2023/06/28 05:31:32;;;;;;;3.30;2.00;;;17.00;99.90;;;;;;5055507;28;20538;-89
2023/06/28 05:33:58;;;;;;;2.20;1.80;;;17.00;99.90;;;;;;5055031;28;20498;-89
2023/06/28 05:36:26;;;;;;;3.10;2.03;;;17.00;99.90;;;;;;5054813;28;20459;-89
2023/06/28 05:38:55;;;;;;;4.77;2.50;;;17.10;99.90;;;;;;5054602;28;20550;-89
2023/06/28 05:41:22;;;;;;;2.27;1.97;;;17.10;99.90;;;;;;5054235;28;20465;-89
2023/06/28 05:43:49;;;;;;;2.10;2.00;;;17.10;99.90;;;;;;5054087;28;20488;-92
2023/06/28 05:46:16;;;;;;;4.10;2.60;;;17.20;99.90;;;;;;5054966;28;20493;-91
2023/06/28 05:48:43;;;;;;;3.13;2.17;;;17.20;99.90;;;;;;5055431;28;20465;-90
2023/06/28 05:51:12;;;;;;;1.80;1.70;;;17.20;99.90;;;;;;5054400;28;20465;-89
2023/06/28 05:53:55;;;;;;;2.87;1.93;;;17.30;99.90;;;;;;5065106;23;20521;-93
2023/06/28 05:59:31;;;;;;;1.97;1.87;;;17.40;99.90;;;;;;5019328;28;20461;-92
2023/06/28 06:02:17;;;;;;;2.50;2.17;;;17.40;99.90;;;;;;5033315;28;20485;-92
2023/06/28 06:04:53;;;;;;;3.57;2.07;;;17.50;99.90;;;;;;5052191;28;20511;-92
2023/06/28 06:07:39;;;;;;;2.27;2.07;;;17.60;99.90;;;;;;5052521;28;20469;-92
2023/06/28 06:10:22;;;;;;;2.33;1.70;;;17.60;99.90;;;;;;5053001;28;20471;-92
2023/06/28 06:13:12;;;;;;;2.43;1.80;;;17.70;99.90;;;;;;5054324;28;20480;-92
2023/06/28 06:15:54;;;;;;;3.40;2.47;;;17.70;99.90;;;;;;5055566;28;20466;-92
2023/06/28 06:18:40;;;;;;;2.20;1.83;;;17.80;99.90;;;;;;5054307;28;20503;-91
2023/06/28 06:21:09;;;;;;;3.10;2.03;;;17.90;99.90;;;;;;5054102;28;20473;-91
2023/06/28 06:23:52;;;;;;;;;;;;;;;;;;;;;
2023/06/28 06:26:57;;;;;;;2.57;1.73;;;17.90;99.90;;;;;;5055751;28;20567;-92
2023/06/28 06:29:40;;;;;;;2.90;1.87;;;18.00;99.90;;;;;;5026091;28;20468;-92
2023/06/28 06:32:13;;;;;;;1.87;1.60;;;18.00;99.90;;;;;;5054031;28;20465;-92
2023/06/28 06:40:58;;;;;;;2.23;1.53;;;18.20;99.90;;;;;;5067130;28;20468;-93
2023/06/28 06:43:39;;;;;;;4.03;2.23;;;18.20;99.90;;;;;;5067310;28;20493;-94
2023/06/28 06:58:55;;;;;;;2.83;1.63;;;18.50;99.90;;;;;;5073179;28;20492;-93
2023/06/28 07:01:44;;;;;;;1.57;1.47;;;18.50;99.90;;;;;;5059129;28;20890;-93
2023/06/28 07:04:57;;;;;;;1.90;1.70;;;18.60;99.90;;;;;;5007992;28;20483;-93
2023/06/28 07:07:36;;;;;;;2.40;1.60;;;18.70;99.90;;;;;;5011057;28;20474;-91
2023/06/28 07:16:06;;;;;;;2.93;1.93;;;18.90;99.90;;;;;;5056016;28;20469;-91
2023/06/28 07:18:54;;;;;;;2.07;1.60;;;18.90;99.90;;;;;;5059903;28;20493;-92
2023/06/28 07:21:40;;;;;;;2.30;1.63;;;19.00;99.90;;;;;;5059644;28;20451;-91
2023/06/28 07:36:35;;;;;;;2.27;1.70;;;19.10;99.90;;;;;;5030482;28;20470;-72
2023/06/28 07:39:02;;;;;;;4.03;1.77;;;19.10;99.90;;;;;;5032249;28;20830;-71
2023/06/28 07:41:29;;;;;;;2.73;1.70;;;19.10;99.90;;;;;;5032668;28;20469;-70
2023/06/28 07:43:55;;;;;;;5.00;1.70;;;19.10;99.90;;;;;;5032346;28;20458;-73
2023/06/28 07:46:22;;;;;;;2.03;1.43;;;19.10;99.90;;;;;;5031026;28;20570;-70
2023/06/28 07:48:50;;;;;;;2.23;1.73;;;19.00;99.90;;;;;;5032173;28;20459;-69
2023/06/28 07:51:17;;;;;;;2.63;1.80;;;19.00;99.90;;;;;;5024302;28;20493;-72
2023/06/28 07:53:46;;;;;;;1.60;1.50;;;19.00;99.90;;;;;;5030510;28;20494;-69
2023/06/28 07:56:12;;;;;;;3.40;1.80;;;19.00;99.90;;;;;;5031162;28;20466;-72
2023/06/28 07:58:39;;;;;;;1.97;1.57;;;19.00;99.50;;;;;;5031113;28;20509;-70
2023/06/28 08:01:06;;;;;;;2.63;1.90;;;19.00;99.70;;;;;;5030571;28;20462;-74
2023/06/28 08:03:32;;;;;;;2.70;1.80;;;19.00;99.90;;;;;;5031501;28;20470;-72
2023/06/28 08:05:59;;;;;;;2.70;1.50;;;19.00;99.90;;;;;;5030376;28;20477;-72
2023/06/28 08:08:26;;;;;;;1.70;1.43;;;19.00;99.90;;;;;;5030679;28;20478;-71
2023/06/28 08:10:54;;;;;;;1.77;1.43;;;19.10;99.90;;;;;;5030638;28;20474;-72
2023/06/28 08:13:21;;;;;;;2.43;1.63;;;19.10;99.90;;;;;;5023414;28;20483;-72
2023/06/28 08:15:47;;;;;;;1.70;1.60;;;19.20;99.90;;;;;;5030023;28;20524;-72
2023/06/28 08:18:16;;;;;;;3.47;1.70;;;19.20;99.40;;;;;;5030717;28;20493;-73
2023/06/28 08:20:44;;;;;;;2.10;1.80;;;19.20;99.60;;;;;;5030987;28;20483;-70
2023/06/28 08:23:10;;;;;;;2.40;1.90;;;19.30;99.90;;;;;;5029983;28;20520;-71
2023/06/28 08:25:37;;;;;;;2.87;1.90;;;19.20;99.90;;;;;;5030255;28;20857;-71
2023/06/28 08:28:05;;;;;;;3.63;1.87;;;19.30;99.90;;;;;;5030289;28;20486;-72
2023/06/28 08:30:34;;;;;;;4.13;1.73;;;19.30;99.70;;;;;;5030433;28;20834;-70
2023/06/28 08:33:01;;;;;;;1.70;1.60;;;19.30;99.80;;;;;;5030480;28;20470;-73
2023/06/28 08:35:27;;;;;;;1.80;1.50;;;19.30;98.60;;;;;;5030095;28;20549;-69
2023/06/28 08:37:54;;;;;;;3.03;1.80;;;19.40;99.00;;;;;;5029877;28;20863;-71
2023/06/28 08:40:21;;;;;;;2.50;1.70;;;19.40;99.30;;;;;;5022752;28;20472;-70
2023/06/28 08:42:49;;;;;;;3.40;1.93;;;19.40;99.50;;;;;;5030127;28;20854;-70
2023/06/28 08:45:17;;;;;;;2.60;1.70;;;19.40;99.60;;;;;;5029502;28;20975;-69
2023/06/28 08:47:45;;;;;;;2.40;1.67;;;19.50;99.90;;;;;;5029202;28;20485;-69
2023/06/28 08:50:12;;;;;;;3.33;2.13;;;19.50;99.90;;;;;;5030162;28;20469;-69
2023/06/28 08:52:41;;;;;;;2.90;1.93;;;19.60;99.90;;;;;;5029886;28;20470;-70
2023/06/28 08:55:09;;;;;;;1.60;1.50;;;19.60;99.90;;;;;;5029746;28;20838;-70
2023/06/28 08:57:37;;;;;;;1.97;1.50;;;19.60;99.90;;;;;;5029929;28;20488;-70
2023/06/28 09:00:05;;;;;;;2.20;2.00;;;19.70;99.90;;;;;;5029563;28;20535;-70
2023/06/28 09:02:36;;;;;;;2.33;1.70;;;19.70;99.90;;;;;;5030139;28;20471;-69
2023/06/28 09:05:03;;;;;;;2.10;1.90;;;19.80;98.40;;;;;;5029653;28;20475;-69
2023/06/28 09:07:34;;;;;;;2.10;1.73;;;19.90;99.20;;;;;;5029347;28;20487;-71
2023/06/28 09:10:01;;;;;;;2.50;1.63;;;19.90;99.00;;;;;;5029625;28;20468;-72
2023/06/28 09:12:29;;;;;;;2.53;1.97;;;20.00;99.70;;;;;;5029367;28;20465;-71
2023/06/28 09:14:55;;;;;;;2.67;2.00;;;20.10;99.90;;;;;;5028867;28;20467;-70
2023/06/28 09:17:22;;;;;;;2.20;1.80;;;20.10;97.60;;;;;;5021522;28;20481;-70
2023/06/28 09:19:51;;;;;;;2.67;1.90;;;20.00;97.30;;;;;;5028418;28;20898;-70
2023/06/28 09:22:18;;;;;;;2.70;1.93;;;19.70;97.10;;;;;;5028566;28;20471;-69
2023/06/28 09:24:50;;;;;;;3.60;1.93;;;19.60;97.50;;;;;;5028877;28;20466;-71
2023/06/28 09:27:16;;;;;;;2.43;2.23;;;19.60;98.80;;;;;;5028358;28;20538;-69
2023/06/28 09:29:43;;;;;;;1.80;1.70;;;19.80;98.90;;;;;;5029065;28;20460;-71
2023/06/28 09:32:10;;;;;;;5.37;1.87;;;19.90;99.90;;;;;;5029425;28;20842;-71
2023/06/28 09:34:37;;;;;;;3.10;2.00;;;20.00;99.90;;;;;;5029320;28;20464;-70
2023/06/28 09:37:06;;;;;;;2.30;1.83;;;20.10;99.90;;;;;;5028150;28;20507;-69
2023/06/28 09:39:37;;;;;;;6.27;2.30;;;20.20;99.90;;;;;;5029608;28;20514;-69
2023/06/28 09:42:04;;;;;;;1.83;1.67;;;20.30;99.90;;;;;;5029528;28;20997;-70
2023/06/28 09:44:31;;;;;;;2.20;1.80;;;20.40;99.90;;;;;;5029204;28;20464;-70
2023/06/28 09:47:02;;;;;;;2.63;2.03;;;20.40;98.60;;;;;;5028699;28;20557;-70
2023/06/28 09:49:29;;;;;;;3.13;2.00;;;20.40;98.70;;;;;;5021566;28;21141;-70
2023/06/28 09:51:58;;;;;;;1.70;1.60;;;20.40;98.20;;;;;;5028083;28;20500;-70
2023/06/28 09:54:30;;;;;;;2.30;2.03;;;20.40;98.70;;;;;;5022190;28;20489;-70
2023/06/28 09:56:57;;;;;;;2.00;1.70;;;20.50;98.10;;;;;;5029282;28;21181;-70
2023/06/28 09:59:27;;;;;;;3.53;2.00;;;20.60;99.40;;;;;;5029749;28;20522;-69
2023/06/28 10:01:56;;;;;;;2.13;1.93;;;20.80;98.00;;;;;;5028811;28;20467;-71
2023/06/28 10:04:23;;;;;;;3.20;1.80;;;21.00;98.00;;;;;;5029989;28;20460;-70
2023/06/28 10:06:51;;;;;;;2.20;2.00;;;21.10;97.80;;;;;;5028750;28;20487;-70
2023/06/28 10:09:22;;;;;;;3.07;2.20;;;21.20;97.60;;;;;;5030018;28;20484;-70
2023/06/28 10:11:51;;;;;;;3.07;2.07;;;21.40;98.70;;;;;;5029738;28;20555;-70
2023/06/28 10:14:20;;;;;;;3.43;2.27;;;21.50;99.90;;;;;;5028917;28;20985;-71
2023/06/28 10:16:47;;;;;;;4.17;1.90;;;21.60;99.60;;;;;;5028961;28;20492;-70
2023/06/28 10:19:14;;;;;;;2.43;1.70;;;21.80;98.80;;;;;;5029476;28;20457;-70
2023/06/28 10:21:42;;;;;;;1.87;1.73;;;22.10;98.70;;;;;;5029337;28;20972;-70
2023/06/28 10:24:09;;;;;;;4.20;1.93;;;22.20;98.70;;;;;;5029883;28;20461;-70
2023/06/28 10:26:37;;;;;;;2.70;2.37;;;22.30;99.60;;;;;;5032021;28;20896;-71
2023/06/28 10:29:05;;;;;;;3.13;1.97;;;22.60;98.70;;;;;;5033315;28;20469;-69
2023/06/28 10:31:33;;;;;;;1.80;1.70;;;22.80;98.60;;;;;;5033713;28;20829;-70
2023/06/28 10:34:00;;;;;;;3.20;1.93;;;23.00;98.20;;;;;;5033553;28;20481;-70
2023/06/28 10:36:27;;;;;;;1.80;1.70;;;23.10;98.90;;;;;;5024735;28;20470;-72
2023/06/28 10:38:54;;;;;;;3.57;1.80;;;23.30;97.20;;;;;;5032893;28;20459;-71
2023/06/28 10:41:21;;;;;;;3.43;2.03;;;23.50;97.20;;;;;;5033834;28;20463;-71
2023/06/28 10:43:50;;;;;;;4.83;1.97;;;23.60;98.50;;;;;;5033032;28;20460;-71
2023/06/28 10:46:27;;;;;;;3.00;1.97;;;23.80;98.50;;;;;;5032785;28;20479;-71
2023/06/28 10:48:54;;;;;;;3.20;2.10;;;23.80;96.90;;;;;;5033037;28;20460;-71
2023/06/28 10:51:22;;;;;;;3.63;2.20;;;23.70;96.00;;;;;;5032473;28;21126;-71
2023/06/28 10:53:52;;;;;;;2.77;1.90;;;23.60;96.60;;;;;;5031108;28;21014;-72
2023/06/28 10:56:20;;;;;;;3.77;1.90;;;23.70;97.80;;;;;;5033200;28;20460;-71
2023/06/28 10:58:48;;;;;;;1.70;1.40;;;23.80;98.30;;;;;;5032911;28;20491;-71
2023/06/28 11:01:35;;;;;;;2.20;1.77;;;24.00;96.40;;;;;;5032312;28;20849;-70
2023/06/28 11:04:18;;;;;;;2.93;1.83;;;24.20;96.60;;;;;;5033289;28;20458;-71
2023/06/28 11:06:45;;;;;;;2.27;1.97;;;24.30;96.50;;;;;;5026464;28;20481;-75
2023/06/28 11:09:14;;;;;;;4.50;2.07;;;24.40;96.50;;;;;;5033134;28;20473;-71
2023/06/28 11:11:53;;;;;;;2.50;1.40;;;24.60;97.70;;;;;;5033251;28;20840;-72
2023/06/28 11:14:22;;;;;;;2.20;1.70;;;24.70;96.50;;;;;;5032227;28;20714;-74
2023/06/28 11:16:51;;;;;;;2.43;1.90;;;24.80;93.70;;;;;;5032561;28;20480;-73
2023/06/28 11:19:22;;;;;;;1.87;1.63;;;24.80;95.40;;;;;;5033079;28;20475;-71
2023/06/28 11:21:55;;;;;;;1.70;1.60;;;24.70;93.20;;;;;;5030932;28;20975;-70
2023/06/28 11:24:26;;;;;;;2.40;1.60;;;24.50;93.70;;;;;;5033153;28;20541;-71
2023/06/28 11:26:53;;;;;;;1.60;1.50;;;24.40;96.20;;;;;;5031977;28;20517;-71
2023/06/28 11:29:21;;;;;;;3.23;1.90;;;24.20;95.00;;;;;;5022921;28;20925;-72
2023/06/28 11:31:50;;;;;;;2.27;1.60;;;24.20;95.20;;;;;;5012820;28;20485;-71
2023/06/28 11:34:18;;;;;;;2.23;1.80;;;24.30;95.80;;;;;;5030724;28;21228;-71
2023/06/28 11:36:46;;;;;;;1.97;1.60;;;24.40;95.60;;;;;;5031672;28;20482;-71
2023/06/28 11:39:15;;;;;;;2.07;1.73;;;24.50;96.60;;;;;;5030501;28;20546;-71
2023/06/28 11:41:42;;;;;;;2.17;1.57;;;24.70;94.50;;;;;;5031078;28;20464;-72
2023/06/28 11:44:09;;;;;;;1.80;1.57;;;24.70;95.30;;;;;;5031842;28;20955;-71
2023/06/28 11:46:36;;;;;;;2.40;1.57;;;24.90;95.40;;;;;;5024267;28;20565;-71
2023/06/28 11:49:05;;;;;;;1.83;1.67;;;25.10;95.90;;;;;;5032572;28;20472;-70
2023/06/28 11:51:32;;;;;;;2.00;1.60;;;25.20;95.30;;;;;;5032197;28;20461;-70
2023/06/28 11:53:59;;;;;;;3.90;2.07;;;25.40;94.80;;;;;;5032100;28;20463;-71
2023/06/28 11:56:36;;;;;;;2.80;1.57;;;25.40;93.20;;;;;;5031853;28;20469;-72
2023/06/28 11:59:16;;;;;;;1.70;1.60;;;25.40;94.10;;;;;;5032247;28;20471;-73
2023/06/28 12:01:44;;;;;;;2.80;1.87;;;25.30;92.50;;;;;;5032637;28;20471;-70
2023/06/28 12:04:16;;;;;;;1.70;1.60;;;25.10;94.00;;;;;;5032041;28;20884;-73
2023/06/28 12:06:43;;;;;;;4.50;1.73;;;24.90;94.10;;;;;;5031598;28;20485;-73
2023/06/28 12:09:23;;;;;;;2.93;1.87;;;24.60;94.30;;;;;;5031976;28;20460;-73
2023/06/28 12:11:55;;;;;;;2.17;1.97;;;24.30;93.10;;;;;;5031722;28;20469;-73
2023/06/28 12:14:22;;;;;;;1.97;1.80;;;24.20;96.30;;;;;;5031197;28;20459;-70
2023/06/28 12:16:50;;;;;;;1.93;1.73;;;24.30;94.20;;;;;;5074286;23;21036;-89
2023/06/28 12:19:19;;;;;;;2.00;1.80;;;24.40;94.40;;;;;;5039591;28;20478;-90
2023/06/28 12:21:46;;;;;;;2.43;1.63;;;24.50;94.60;;;;;;5035930;28;20466;-88
2023/06/28 12:24:16;;;;;;;1.80;1.70;;;24.70;95.80;;;;;;5035188;28;20456;-89
2023/06/28 12:26:45;;;;;;;2.20;1.70;;;24.90;95.10;;;;;;5042452;28;20479;-89
2023/06/28 12:29:12;;;;;;;2.67;1.80;;;25.10;95.20;;;;;;5054701;28;20493;-90
2023/06/28 12:31:47;;;;;;;2.80;1.77;;;25.10;94.00;;;;;;5052480;28;20458;-90
2023/06/28 12:34:14;;;;;;;3.00;1.70;;;25.10;95.30;;;;;;5053830;28;20471;-90
2023/06/28 12:36:42;;;;;;;2.67;1.67;;;25.20;94.00;;;;;;5054012;28;20542;-90
2023/06/28 12:39:09;;;;;;;2.10;1.70;;;25.30;94.50;;;;;;5053812;28;20467;-90
2023/06/28 12:41:36;;;;;;;1.70;1.60;;;25.30;95.40;;;;;;5053969;28;20843;-89
2023/06/28 12:44:03;;;;;;;2.53;1.70;;;25.40;95.20;;;;;;5045335;28;20469;-89
2023/06/28 12:46:30;;;;;;;2.50;1.57;;;25.30;94.10;;;;;;5053405;28;20542;-89
2023/06/28 12:49:04;;;;;;;3.67;1.60;;;25.10;92.30;;;;;;5054209;28;20461;-89
2023/06/28 12:51:30;;;;;;;6.17;2.10;;;25.00;92.70;;;;;;5053416;28;20461;-90
2023/06/28 12:53:58;;;;;;;2.13;1.73;;;24.70;95.20;;;;;;5053183;28;20890;-89
2023/06/28 12:56:26;;;;;;;2.03;1.90;;;24.50;95.10;;;;;;5052674;28;20551;-88
2023/06/28 12:58:53;;;;;;;2.50;1.77;;;24.30;94.80;;;;;;5053300;28;20865;-89
2023/06/28 13:01:20;;;;;;;2.50;1.80;;;24.10;95.10;;;;;;5051940;28;20488;-89
2023/06/28 13:03:51;;;;;;;2.37;1.87;;;24.00;95.20;;;;;;5046806;28;20847;-90
2023/06/28 13:06:18;;;;;;;2.03;1.60;;;23.90;93.70;;;;;;5052911;28;20486;-89
2023/06/28 13:08:45;;;;;;;1.40;1.30;;;23.90;94.60;;;;;;5053298;28;20467;-89
2023/06/28 13:11:13;;;;;;;2.33;1.60;;;24.00;94.90;;;;;;5053098;28;20466;-89
2023/06/28 13:13:40;;;;;;;3.67;1.97;;;24.00;94.90;;;;;;5053898;28;20500;-90
2023/06/28 13:16:07;;;;;;;1.83;1.63;;;24.10;95.60;;;;;;5054079;28;20477;-89
2023/06/28 13:18:37;;;;;;;2.10;1.80;;;24.40;96.50;;;;;;5053735;28;20847;-89
2023/06/28 13:21:04;;;;;;;1.93;1.63;;;24.60;94.10;;;;;;5055084;28;20456;-89
2023/06/28 13:23:31;;;;;;;2.10;1.67;;;24.50;94.40;;;;;;5053541;28;20459;-89
2023/06/28 13:25:59;;;;;;;3.30;1.73;;;24.30;95.00;;;;;;5053408;28;20463;-89
2023/06/28 13:28:27;;;;;;;3.80;1.90;;;24.20;94.60;;;;;;5053508;28;20492;-89
2023/06/28 13:30:53;;;;;;;2.00;1.80;;;24.30;93.90;;;;;;5054808;28;20841;-89
2023/06/28 13:33:20;;;;;;;3.30;2.03;;;24.40;94.40;;;;;;5053056;28;20526;-89
2023/06/28 13:35:47;;;;;;;2.00;1.90;;;24.50;95.10;;;;;;5053633;28;20475;-90
2023/06/28 13:38:15;;;;;;;5.47;1.63;;;24.60;95.40;;;;;;5068306;28;20452;-89